Siroko — UFKA — position and weather

sailwx.info

Track history (hours):
 
Tides and Currents Weather Stations Pressure Air Temp Water Temp Dewpoint Dewpoint Depression Visibility Wind Speed Wind Dir Waves Ship Positions

Siroko

Last reported at 2017-Oct-17 17:33 UTC. Time now 2017-Oct-17 22:33 UTC.
Position N 45°07' E 036°35'.

Length 33 m; draft 3.4 m.

Type: Tug. MMSI: 273442990.

Date/timePositionNaut miles runAvg speedWind from/ knotsBaromVisibWave heightAir tempDewpointWater temp
2017-Oct-17 17:33N 45°07' E 036°35'0 0.1
2017-Oct-17 17:28N 45°07' E 036°35'0 0.1
2017-Oct-17 16:59N 45°07' E 036°35'0 0.6
2017-Oct-17 16:30N 45°07' E 036°35'1 2.8
2017-Oct-17 15:58N 45°06' E 036°35'4 7.8
2017-Oct-17 15:30N 45°09' E 036°35'1 0.1
2017-Oct-16 19:54N 45°10' E 036°34'1 0.4
2017-Oct-16 17:57N 45°09' E 036°34'5 7.7
2017-Oct-16 17:20N 45°12' E 036°28'5 0.2
2017-Oct-15 13:19N 45°10' E 036°35'0 0.0
2017-Oct-14 20:37N 45°10' E 036°35'0 0.0
2017-Oct-14 14:29N 45°10' E 036°35'2 3.2
2017-Oct-14 14:01N 45°09' E 036°33'2 4.2
2017-Oct-14 13:30N 45°11' E 036°31'4 8.8
2017-Oct-14 13:01N 45°13' E 036°25'0 0.0
2017-Oct-14 05:11N 45°13' E 036°25'0 0.0
2017-Oct-14 04:57N 45°13' E 036°25'0 0.0
2017-Oct-14 02:29N 45°13' E 036°25'0 0.0
2017-Oct-13 22:29N 45°13' E 036°25'0 0.0
2017-Oct-13 22:01N 45°13' E 036°25'0 0.0
2017-Oct-13 21:31N 45°13' E 036°25'0 0.0
2017-Oct-13 21:00N 45°13' E 036°25'0 0.0
2017-Oct-13 20:30N 45°13' E 036°25'0 0.0
2017-Oct-13 20:00N 45°13' E 036°25'0 0.0
2017-Oct-13 19:29N 45°13' E 036°25'0 0.0
2017-Oct-13 18:58N 45°13' E 036°25'0 0.0
2017-Oct-13 18:30N 45°13' E 036°25'0 0.0
2017-Oct-13 17:59N 45°13' E 036°25'0 0.0
2017-Oct-13 17:28N 45°13' E 036°25'0 0.0
2017-Oct-13 17:00N 45°13' E 036°25'0 0.0
2017-Oct-13 16:30N 45°13' E 036°25'0 0.0
2017-Oct-13 16:00N 45°13' E 036°25'0 0.0
2017-Oct-13 15:13N 45°13' E 036°25'0 0.0
2017-Oct-13 14:56N 45°13' E 036°25'0 0.0
2017-Oct-13 14:27N 45°13' E 036°25'0 0.0
2017-Oct-13 13:59N 45°13' E 036°25'0 0.0
2017-Oct-13 13:28N 45°13' E 036°25'0 0.0
2017-Oct-13 12:52N 45°13' E 036°25'0 0.0
2017-Oct-13 12:29N 45°13' E 036°25'0 0.0
2017-Oct-13 12:00N 45°13' E 036°25'0 0.0
2017-Oct-13 11:30N 45°13' E 036°25'8 5.5
2017-Oct-13 10:01N 45°09' E 036°35'0 0.2
2017-Oct-13 09:51N 45°09' E 036°35'0 0.0
2017-Oct-13 09:13N 45°09' E 036°35'0 0.0
2017-Oct-13 08:57N 45°09' E 036°35'0 0.0
2017-Oct-13 08:29N 45°09' E 036°35'0 0.0
2017-Oct-13 08:00N 45°09' E 036°35'0 0.0
2017-Oct-13 07:29N 45°09' E 036°35'0 0.0
2017-Oct-13 07:00N 45°09' E 036°35'0 0.0
2017-Oct-13 06:30N 45°09' E 036°35'0 0.0
2017-Oct-13 06:00N 45°09' E 036°35'0 0.0
2017-Oct-13 05:30N 45°09' E 036°35'0 0.0
2017-Oct-13 04:53N 45°09' E 036°35'0 0.0
2017-Oct-12 19:40N 45°09' E 036°35'0 0.0
2017-Oct-12 19:27N 45°09' E 036°35'0 0.0
2017-Oct-12 18:21N 45°09' E 036°35'0 0.0
2017-Oct-12 17:54N 45°09' E 036°35'0 0.0
2017-Oct-12 17:19N 45°09' E 036°35'0 0.0
2017-Oct-12 16:16N 45°09' E 036°35'0 0.0
2017-Oct-12 16:00N 45°09' E 036°35'0 0.0
2017-Oct-12 15:29N 45°09' E 036°35'0 0.0
2017-Oct-12 14:45N 45°09' E 036°35'0 0.0
2017-Oct-12 14:30N 45°09' E 036°35'0 0.0
2017-Oct-12 13:46N 45°09' E 036°35'0 0.0
2017-Oct-12 13:25N 45°09' E 036°35'0 0.0
2017-Oct-12 12:47N 45°09' E 036°35'0 0.0
2017-Oct-12 12:26N 45°09' E 036°35'0 0.0
2017-Oct-12 11:52N 45°09' E 036°35'0 0.0
2017-Oct-12 11:30N 45°09' E 036°35'0 0.0
2017-Oct-12 10:55N 45°09' E 036°35'0 0.0
2017-Oct-12 10:26N 45°09' E 036°35'2 0.5
2017-Oct-12 06:55N 45°07' E 036°34'2 0.1
2017-Oct-11 00:00N 45°09' E 036°35'0 0.0
2017-Oct-10 23:30N 45°09' E 036°35'0 0.0
2017-Oct-10 23:00N 45°09' E 036°35'0 0.0
2017-Oct-10 22:30N 45°09' E 036°35'0 0.0
2017-Oct-10 21:59N 45°09' E 036°35'0 0.0
2017-Oct-10 21:30N 45°09' E 036°35'0 0.0
2017-Oct-10 21:00N 45°09' E 036°35'2 0.8
2017-Oct-10 18:38N 45°07' E 036°34'2 9.9
2017-Oct-10 18:28N 45°09' E 036°35'0 0.7
2017-Oct-10 17:59N 45°09' E 036°35'0 0.0
2017-Oct-10 16:35N 45°09' E 036°35'0 0.0
2017-Oct-10 12:44N 45°09' E 036°35'0 0.0
2017-Oct-10 12:29N 45°09' E 036°35'0 0.0
2017-Oct-10 11:59N 45°09' E 036°35'2 0.7
2017-Oct-10 09:10N 45°07' E 036°35'1 5.1
2017-Oct-10 08:58N 45°06' E 036°35'1 0.6
2017-Oct-10 08:05N 45°06' E 036°35'0 0.1
2017-Oct-10 07:50N 45°06' E 036°35'1 1.0
2017-Oct-10 06:18N 45°07' E 036°35'2 8.0
2017-Oct-10 06:00N 45°09' E 036°35'0 0.1
2017-Oct-10 05:17N 45°09' E 036°35'2 8.5
2017-Oct-10 05:00N 45°11' E 036°32'5 9.3
2017-Oct-10 04:30N 45°15' E 036°29'0 0.4
2017-Oct-10 03:24N 45°15' E 036°29'0 0.0
2017-Oct-10 03:00N 45°15' E 036°29'0 0.0
2017-Oct-10 02:30N 45°15' E 036°29'0 0.0
2017-Oct-10 00:48N 45°15' E 036°29'0 0.0
2017-Oct-10 00:27N 45°15' E 036°29'0 0.0
2017-Oct-09 18:57N 45°15' E 036°29'0 0.0
2017-Oct-09 17:24N 45°15' E 036°29'0 0.0
2017-Oct-09 16:57N 45°15' E 036°29'0 0.0
2017-Oct-09 16:30N 45°15' E 036°29'0 0.0
2017-Oct-09 15:06N 45°15' E 036°29'0 0.0
2017-Oct-09 13:36N 45°15' E 036°29'0 0.0
2017-Oct-09 13:27N 45°15' E 036°29'0 0.0
2017-Oct-09 13:00N 45°15' E 036°29'0 0.0
2017-Oct-09 12:09N 45°15' E 036°29'0 0.0
2017-Oct-09 12:00N 45°15' E 036°29'0 0.0
2017-Oct-09 10:30N 45°15' E 036°29'0 0.0
2017-Oct-09 08:42N 45°16' E 036°29'0 0.0
2017-Oct-09 08:18N 45°16' E 036°29'0 0.0
2017-Oct-09 08:00N 45°15' E 036°29'0 0.0
2017-Oct-09 07:30N 45°15' E 036°29'0 0.0
2017-Oct-09 07:00N 45°15' E 036°29'0 0.0
2017-Oct-09 06:27N 45°15' E 036°29'0 0.0
2017-Oct-09 06:00N 45°15' E 036°29'0 0.0
2017-Oct-09 05:18N 45°15' E 036°29'0 0.0
2017-Oct-09 05:00N 45°15' E 036°29'0 0.0
2017-Oct-09 04:30N 45°15' E 036°29'0 0.0
2017-Oct-09 04:00N 45°15' E 036°29'0 0.0
2017-Oct-09 03:30N 45°15' E 036°29'0 0.0
2017-Oct-09 00:24N 45°15' E 036°29'0 0.0
2017-Oct-09 00:00N 45°15' E 036°29'0 0.0
2017-Oct-08 23:18N 45°15' E 036°29'0 0.0
2017-Oct-08 23:00N 45°15' E 036°29'0 0.0
2017-Oct-08 20:45N 45°16' E 036°29'0 0.0
2017-Oct-08 20:24N 45°15' E 036°29'0 0.0
2017-Oct-08 19:00N 45°15' E 036°29'0 0.0
2017-Oct-08 16:48N 45°16' E 036°29'0 0.0
2017-Oct-08 16:30N 45°16' E 036°29'0 0.0
2017-Oct-08 15:09N 45°16' E 036°29'0 0.0
2017-Oct-08 15:00N 45°16' E 036°29'0 0.0
2017-Oct-08 14:30N 45°16' E 036°29'0 0.0
2017-Oct-08 14:00N 45°16' E 036°29'0 0.0
2017-Oct-08 13:30N 45°16' E 036°29'0 0.0
2017-Oct-08 13:00N 45°16' E 036°29'0 0.0
2017-Oct-08 12:27N 45°16' E 036°29'0 0.0
2017-Oct-08 12:00N 45°16' E 036°29'0 0.0
2017-Oct-08 11:23N 45°15' E 036°29'0 0.0
2017-Oct-08 10:59N 45°15' E 036°29'0 0.0
2017-Oct-08 10:29N 45°16' E 036°29'3 5.7
2017-Oct-08 09:58N 45°13' E 036°30'5 8.4
2017-Oct-08 09:24N 45°09' E 036°35'0 0.2
2017-Oct-08 09:00N 45°09' E 036°35'0 0.0
2017-Oct-08 08:30N 45°09' E 036°35'0 0.0
2017-Oct-08 08:00N 45°09' E 036°35'0 0.0
2017-Oct-08 07:27N 45°09' E 036°35'0 0.0
2017-Oct-08 06:57N 45°09' E 036°35'0 0.0
2017-Oct-08 06:30N 45°09' E 036°35'0 0.0
2017-Oct-08 06:00N 45°09' E 036°35'0 0.0
2017-Oct-08 05:21N 45°09' E 036°35'0 0.0
2017-Oct-08 05:00N 45°09' E 036°35'0 0.0
2017-Oct-08 04:15N 45°09' E 036°35'0 0.0
2017-Oct-08 03:39N 45°09' E 036°35'1 0.7
2017-Oct-08 02:20N 45°08' E 036°35'1 0.2
2017-Oct-07 22:25N 45°09' E 036°35'0 0.0
2017-Oct-07 21:55N 45°09' E 036°35'0 0.0
2017-Oct-07 21:28N 45°09' E 036°35'0 0.0
2017-Oct-07 20:28N 45°09' E 036°35'0 0.0
2017-Oct-07 19:58N 45°09' E 036°35'0 0.0
2017-Oct-07 19:22N 45°09' E 036°35'0 0.0
2017-Oct-07 18:28N 45°09' E 036°35'0 0.0
2017-Oct-07 17:55N 45°09' E 036°35'  
Track history (hours):
 
Tides and Currents Weather Stations Pressure Air Temp Water Temp Dewpoint Dewpoint Depression Visibility Wind Speed Wind Dir Waves Ship Positions

Siroko

Last reported at 2017-Oct-17 17:33 UTC. Time now 2017-Oct-17 22:33 UTC.
Position N 45°07' E 036°35'.

Length 33 m; draft 3.4 m.

Type: Tug. MMSI: 273442990.

Date/timePositionNaut miles runAvg speedWind from/ knotsBaromVisibWave heightAir tempDewpointWater temp
2017-Oct-17 17:33N 45°07' E 036°35'0 0.1
2017-Oct-17 17:28N 45°07' E 036°35'0 0.1
2017-Oct-17 16:59N 45°07' E 036°35'0 0.6
2017-Oct-17 16:30N 45°07' E 036°35'1 2.8
2017-Oct-17 15:58N 45°06' E 036°35'4 7.8
2017-Oct-17 15:30N 45°09' E 036°35'1 0.1
2017-Oct-16 19:54N 45°10' E 036°34'1 0.4
2017-Oct-16 17:57N 45°09' E 036°34'5 7.7
2017-Oct-16 17:20N 45°12' E 036°28'5 0.2
2017-Oct-15 13:19N 45°10' E 036°35'0 0.0
2017-Oct-14 20:37N 45°10' E 036°35'0 0.0
2017-Oct-14 14:29N 45°10' E 036°35'2 3.2
2017-Oct-14 14:01N 45°09' E 036°33'2 4.2
2017-Oct-14 13:30N 45°11' E 036°31'4 8.8
2017-Oct-14 13:01N 45°13' E 036°25'0 0.0
2017-Oct-14 05:11N 45°13' E 036°25'0 0.0
2017-Oct-14 04:57N 45°13' E 036°25'0 0.0
2017-Oct-14 02:29N 45°13' E 036°25'0 0.0
2017-Oct-13 22:29N 45°13' E 036°25'0 0.0
2017-Oct-13 22:01N 45°13' E 036°25'0 0.0
2017-Oct-13 21:31N 45°13' E 036°25'0 0.0
2017-Oct-13 21:00N 45°13' E 036°25'0 0.0
2017-Oct-13 20:30N 45°13' E 036°25'0 0.0
2017-Oct-13 20:00N 45°13' E 036°25'0 0.0
2017-Oct-13 19:29N 45°13' E 036°25'0 0.0
2017-Oct-13 18:58N 45°13' E 036°25'0 0.0
2017-Oct-13 18:30N 45°13' E 036°25'0 0.0
2017-Oct-13 17:59N 45°13' E 036°25'0 0.0
2017-Oct-13 17:28N 45°13' E 036°25'0 0.0
2017-Oct-13 17:00N 45°13' E 036°25'0 0.0
2017-Oct-13 16:30N 45°13' E 036°25'0 0.0
2017-Oct-13 16:00N 45°13' E 036°25'0 0.0
2017-Oct-13 15:13N 45°13' E 036°25'0 0.0
2017-Oct-13 14:56N 45°13' E 036°25'0 0.0
2017-Oct-13 14:27N 45°13' E 036°25'0 0.0
2017-Oct-13 13:59N 45°13' E 036°25'0 0.0
2017-Oct-13 13:28N 45°13' E 036°25'0 0.0
2017-Oct-13 12:52N 45°13' E 036°25'0 0.0
2017-Oct-13 12:29N 45°13' E 036°25'0 0.0
2017-Oct-13 12:00N 45°13' E 036°25'0 0.0
2017-Oct-13 11:30N 45°13' E 036°25'8 5.5
2017-Oct-13 10:01N 45°09' E 036°35'0 0.2
2017-Oct-13 09:51N 45°09' E 036°35'0 0.0
2017-Oct-13 09:13N 45°09' E 036°35'0 0.0
2017-Oct-13 08:57N 45°09' E 036°35'0 0.0
2017-Oct-13 08:29N 45°09' E 036°35'0 0.0
2017-Oct-13 08:00N 45°09' E 036°35'0 0.0
2017-Oct-13 07:29N 45°09' E 036°35'0 0.0
2017-Oct-13 07:00N 45°09' E 036°35'0 0.0
2017-Oct-13 06:30N 45°09' E 036°35'0 0.0
2017-Oct-13 06:00N 45°09' E 036°35'0 0.0
2017-Oct-13 05:30N 45°09' E 036°35'0 0.0
2017-Oct-13 04:53N 45°09' E 036°35'0 0.0
2017-Oct-12 19:40N 45°09' E 036°35'0 0.0
2017-Oct-12 19:27N 45°09' E 036°35'0 0.0
2017-Oct-12 18:21N 45°09' E 036°35'0 0.0
2017-Oct-12 17:54N 45°09' E 036°35'0 0.0
2017-Oct-12 17:19N 45°09' E 036°35'0 0.0
2017-Oct-12 16:16N 45°09' E 036°35'0 0.0
2017-Oct-12 16:00N 45°09' E 036°35'0 0.0
2017-Oct-12 15:29N 45°09' E 036°35'0 0.0
2017-Oct-12 14:45N 45°09' E 036°35'0 0.0
2017-Oct-12 14:30N 45°09' E 036°35'0 0.0
2017-Oct-12 13:46N 45°09' E 036°35'0 0.0
2017-Oct-12 13:25N 45°09' E 036°35'0 0.0
2017-Oct-12 12:47N 45°09' E 036°35'0 0.0
2017-Oct-12 12:26N 45°09' E 036°35'0 0.0
2017-Oct-12 11:52N 45°09' E 036°35'0 0.0
2017-Oct-12 11:30N 45°09' E 036°35'0 0.0
2017-Oct-12 10:55N 45°09' E 036°35'0 0.0
2017-Oct-12 10:26N 45°09' E 036°35'2 0.5
2017-Oct-12 06:55N 45°07' E 036°34'2 0.1
2017-Oct-11 00:00N 45°09' E 036°35'0 0.0
2017-Oct-10 23:30N 45°09' E 036°35'0 0.0
2017-Oct-10 23:00N 45°09' E 036°35'0 0.0
2017-Oct-10 22:30N 45°09' E 036°35'0 0.0
2017-Oct-10 21:59N 45°09' E 036°35'0 0.0
2017-Oct-10 21:30N 45°09' E 036°35'0 0.0
2017-Oct-10 21:00N 45°09' E 036°35'2 0.8
2017-Oct-10 18:38N 45°07' E 036°34'2 9.9
2017-Oct-10 18:28N 45°09' E 036°35'0 0.7
2017-Oct-10 17:59N 45°09' E 036°35'0 0.0
2017-Oct-10 16:35N 45°09' E 036°35'0 0.0
2017-Oct-10 12:44N 45°09' E 036°35'0 0.0
2017-Oct-10 12:29N 45°09' E 036°35'0 0.0
2017-Oct-10 11:59N 45°09' E 036°35'2 0.7
2017-Oct-10 09:10N 45°07' E 036°35'1 5.1
2017-Oct-10 08:58N 45°06' E 036°35'1 0.6
2017-Oct-10 08:05N 45°06' E 036°35'0 0.1
2017-Oct-10 07:50N 45°06' E 036°35'1 1.0
2017-Oct-10 06:18N 45°07' E 036°35'2 8.0
2017-Oct-10 06:00N 45°09' E 036°35'0 0.1
2017-Oct-10 05:17N 45°09' E 036°35'2 8.5
2017-Oct-10 05:00N 45°11' E 036°32'5 9.3
2017-Oct-10 04:30N 45°15' E 036°29'0 0.4
2017-Oct-10 03:24N 45°15' E 036°29'0 0.0
2017-Oct-10 03:00N 45°15' E 036°29'0 0.0
2017-Oct-10 02:30N 45°15' E 036°29'0 0.0
2017-Oct-10 00:48N 45°15' E 036°29'0 0.0
2017-Oct-10 00:27N 45°15' E 036°29'0 0.0
2017-Oct-09 18:57N 45°15' E 036°29'0 0.0
2017-Oct-09 17:24N 45°15' E 036°29'0 0.0
2017-Oct-09 16:57N 45°15' E 036°29'0 0.0
2017-Oct-09 16:30N 45°15' E 036°29'0 0.0
2017-Oct-09 15:06N 45°15' E 036°29'0 0.0
2017-Oct-09 13:36N 45°15' E 036°29'0 0.0
2017-Oct-09 13:27N 45°15' E 036°29'0 0.0
2017-Oct-09 13:00N 45°15' E 036°29'0 0.0
2017-Oct-09 12:09N 45°15' E 036°29'0 0.0
2017-Oct-09 12:00N 45°15' E 036°29'0 0.0
2017-Oct-09 10:30N 45°15' E 036°29'0 0.0
2017-Oct-09 08:42N 45°16' E 036°29'0 0.0
2017-Oct-09 08:18N 45°16' E 036°29'0 0.0
2017-Oct-09 08:00N 45°15' E 036°29'0 0.0
2017-Oct-09 07:30N 45°15' E 036°29'0 0.0
2017-Oct-09 07:00N 45°15' E 036°29'0 0.0
2017-Oct-09 06:27N 45°15' E 036°29'0 0.0
2017-Oct-09 06:00N 45°15' E 036°29'0 0.0
2017-Oct-09 05:18N 45°15' E 036°29'0 0.0
2017-Oct-09 05:00N 45°15' E 036°29'0 0.0
2017-Oct-09 04:30N 45°15' E 036°29'0 0.0
2017-Oct-09 04:00N 45°15' E 036°29'0 0.0
2017-Oct-09 03:30N 45°15' E 036°29'0 0.0
2017-Oct-09 00:24N 45°15' E 036°29'0 0.0
2017-Oct-09 00:00N 45°15' E 036°29'0 0.0
2017-Oct-08 23:18N 45°15' E 036°29'0 0.0
2017-Oct-08 23:00N 45°15' E 036°29'0 0.0
2017-Oct-08 20:45N 45°16' E 036°29'0 0.0
2017-Oct-08 20:24N 45°15' E 036°29'0 0.0
2017-Oct-08 19:00N 45°15' E 036°29'0 0.0
2017-Oct-08 16:48N 45°16' E 036°29'0 0.0
2017-Oct-08 16:30N 45°16' E 036°29'0 0.0
2017-Oct-08 15:09N 45°16' E 036°29'0 0.0
2017-Oct-08 15:00N 45°16' E 036°29'0 0.0
2017-Oct-08 14:30N 45°16' E 036°29'0 0.0
2017-Oct-08 14:00N 45°16' E 036°29'0 0.0
2017-Oct-08 13:30N 45°16' E 036°29'0 0.0
2017-Oct-08 13:00N 45°16' E 036°29'0 0.0
2017-Oct-08 12:27N 45°16' E 036°29'0 0.0
2017-Oct-08 12:00N 45°16' E 036°29'0 0.0
2017-Oct-08 11:23N 45°15' E 036°29'0 0.0
2017-Oct-08 10:59N 45°15' E 036°29'0 0.0
2017-Oct-08 10:29N 45°16' E 036°29'3 5.7
2017-Oct-08 09:58N 45°13' E 036°30'5 8.4
2017-Oct-08 09:24N 45°09' E 036°35'0 0.2
2017-Oct-08 09:00N 45°09' E 036°35'0 0.0
2017-Oct-08 08:30N 45°09' E 036°35'0 0.0
2017-Oct-08 08:00N 45°09' E 036°35'0 0.0
2017-Oct-08 07:27N 45°09' E 036°35'0 0.0
2017-Oct-08 06:57N 45°09' E 036°35'0 0.0
2017-Oct-08 06:30N 45°09' E 036°35'0 0.0
2017-Oct-08 06:00N 45°09' E 036°35'0 0.0
2017-Oct-08 05:21N 45°09' E 036°35'0 0.0
2017-Oct-08 05:00N 45°09' E 036°35'0 0.0
2017-Oct-08 04:15N 45°09' E 036°35'0 0.0
2017-Oct-08 03:39N 45°09' E 036°35'1 0.7
2017-Oct-08 02:20N 45°08' E 036°35'1 0.2
2017-Oct-07 22:25N 45°09' E 036°35'0 0.0
2017-Oct-07 21:55N 45°09' E 036°35'0 0.0
2017-Oct-07 21:28N 45°09' E 036°35'0 0.0
2017-Oct-07 20:28N 45°09' E 036°35'0 0.0
2017-Oct-07 19:58N 45°09' E 036°35'0 0.0
2017-Oct-07 19:22N 45°09' E 036°35'0 0.0
2017-Oct-07 18:28N 45°09' E 036°35'0 0.0
2017-Oct-07 17:55N 45°09' E 036°35'  

Dump ship's entire track history